sensor_id;sensor_type;location;lat;lon;timestamp;P1;durP1;ratioP1;P2;durP2;ratioP2
75550;SDS011;65071;53.082;18.218;2022-12-29T00:01:59;7.00;;;2.70;;
75550;SDS011;65071;53.082;18.218;2022-12-29T00:04:25;8.70;;;4.10;;
75550;SDS011;65071;53.082;18.218;2022-12-29T00:06:52;6.20;;;3.40;;
75550;SDS011;65071;53.082;18.218;2022-12-29T00:09:19;4.70;;;2.70;;
75550;SDS011;65071;53.082;18.218;2022-12-29T00:11:46;7.90;;;3.90;;
75550;SDS011;65071;53.082;18.218;2022-12-29T00:14:13;5.70;;;3.50;;
75550;SDS011;65071;53.082;18.218;2022-12-29T00:16:58;8.60;;;4.10;;
75550;SDS011;65071;53.082;18.218;2022-12-29T00:19:24;5.10;;;3.50;;
75550;SDS011;65071;53.082;18.218;2022-12-29T00:22:11;9.60;;;3.60;;
75550;SDS011;65071;53.082;18.218;2022-12-29T00:24:57;7.90;;;3.90;;
75550;SDS011;65071;53.082;18.218;2022-12-29T00:27:43;6.60;;;3.90;;
75550;SDS011;65071;53.082;18.218;2022-12-29T00:30:28;4.90;;;3.00;;
75550;SDS011;65071;53.082;18.218;2022-12-29T00:33:15;6.20;;;3.80;;
75550;SDS011;65071;53.082;18.218;2022-12-29T00:36:10;7.10;;;3.20;;
75550;SDS011;65071;53.082;18.218;2022-12-29T00:38:43;6.50;;;3.20;;
75550;SDS011;65071;53.082;18.218;2022-12-29T00:41:32;5.90;;;3.60;;
75550;SDS011;65071;53.082;18.218;2022-12-29T00:44:17;6.10;;;3.50;;
75550;SDS011;65071;53.082;18.218;2022-12-29T00:46:44;5.40;;;3.40;;
75550;SDS011;65071;53.082;18.218;2022-12-29T00:49:12;5.50;;;3.20;;
75550;SDS011;65071;53.082;18.218;2022-12-29T00:54:30;7.60;;;3.50;;
75550;SDS011;65071;53.082;18.218;2022-12-29T00:56:58;7.30;;;3.60;;
75550;SDS011;65071;53.082;18.218;2022-12-29T00:59:25;5.20;;;3.50;;
75550;SDS011;65071;53.082;18.218;2022-12-29T01:01:52;6.90;;;3.70;;
75550;SDS011;65071;53.082;18.218;2022-12-29T01:04:23;8.50;;;3.90;;
75550;SDS011;65071;53.082;18.218;2022-12-29T01:06:51;4.00;;;2.80;;
75550;SDS011;65071;53.082;18.218;2022-12-29T01:09:18;7.10;;;4.00;;
75550;SDS011;65071;53.082;18.218;2022-12-29T01:12:04;7.80;;;3.90;;
75550;SDS011;65071;53.082;18.218;2022-12-29T01:14:32;7.70;;;3.50;;
75550;SDS011;65071;53.082;18.218;2022-12-29T01:16:59;8.20;;;4.10;;
75550;SDS011;65071;53.082;18.218;2022-12-29T01:19:26;5.90;;;3.50;;
75550;SDS011;65071;53.082;18.218;2022-12-29T01:21:55;9.20;;;4.50;;
75550;SDS011;65071;53.082;18.218;2022-12-29T01:24:22;4.70;;;3.10;;
75550;SDS011;65071;53.082;18.218;2022-12-29T01:26:48;5.60;;;3.20;;
75550;SDS011;65071;53.082;18.218;2022-12-29T01:29:16;4.80;;;2.90;;
75550;SDS011;65071;53.082;18.218;2022-12-29T01:31:45;5.30;;;3.10;;
75550;SDS011;65071;53.082;18.218;2022-12-29T01:34:12;7.70;;;3.40;;
75550;SDS011;65071;53.082;18.218;2022-12-29T01:36:39;7.10;;;3.80;;
75550;SDS011;65071;53.082;18.218;2022-12-29T01:39:05;6.40;;;3.50;;
75550;SDS011;65071;53.082;18.218;2022-12-29T01:41:32;6.70;;;3.80;;
75550;SDS011;65071;53.082;18.218;2022-12-29T01:44:00;6.40;;;3.50;;
75550;SDS011;65071;53.082;18.218;2022-12-29T01:46:30;5.10;;;3.20;;
75550;SDS011;65071;53.082;18.218;2022-12-29T01:49:10;6.20;;;3.60;;
75550;SDS011;65071;53.082;18.218;2022-12-29T01:51:42;7.00;;;3.00;;
75550;SDS011;65071;53.082;18.218;2022-12-29T01:54:16;5.60;;;2.70;;
75550;SDS011;65071;53.082;18.218;2022-12-29T01:56:50;7.40;;;3.20;;
75550;SDS011;65071;53.082;18.218;2022-12-29T01:59:20;5.80;;;3.10;;
75550;SDS011;65071;53.082;18.218;2022-12-29T02:01:50;3.50;;;2.20;;
75550;SDS011;65071;53.082;18.218;2022-12-29T02:04:17;6.40;;;3.00;;
75550;SDS011;65071;53.082;18.218;2022-12-29T02:06:51;5.80;;;2.80;;
75550;SDS011;65071;53.082;18.218;2022-12-29T02:09:22;5.90;;;3.40;;
75550;SDS011;65071;53.082;18.218;2022-12-29T02:11:50;7.00;;;3.00;;
75550;SDS011;65071;53.082;18.218;2022-12-29T02:14:18;5.90;;;3.60;;
75550;SDS011;65071;53.082;18.218;2022-12-29T02:19:39;4.60;;;2.60;;
75550;SDS011;65071;53.082;18.218;2022-12-29T02:36:21;4.00;;;2.70;;
75550;SDS011;65071;53.082;18.218;2022-12-29T02:45:02;7.00;;;2.70;;
75550;SDS011;65071;53.082;18.218;2022-12-29T02:50:25;4.70;;;2.80;;
75550;SDS011;65071;53.082;18.218;2022-12-29T02:52:58;4.20;;;2.20;;
75550;SDS011;65071;53.082;18.218;2022-12-29T02:55:28;5.40;;;3.10;;
75550;SDS011;65071;53.082;18.218;2022-12-29T02:58:12;3.70;;;2.30;;
75550;SDS011;65071;53.082;18.218;2022-12-29T03:00:48;5.20;;;2.10;;
75550;SDS011;65071;53.082;18.218;2022-12-29T03:09:11;5.10;;;3.20;;
75550;SDS011;65071;53.082;18.218;2022-12-29T03:11:58;5.20;;;3.00;;
75550;SDS011;65071;53.082;18.218;2022-12-29T03:17:29;4.90;;;2.60;;
75550;SDS011;65071;53.082;18.218;2022-12-29T03:20:15;5.40;;;3.00;;
75550;SDS011;65071;53.082;18.218;2022-12-29T03:22:58;5.40;;;2.90;;
75550;SDS011;65071;53.082;18.218;2022-12-29T03:25:39;5.00;;;2.80;;
75550;SDS011;65071;53.082;18.218;2022-12-29T03:28:12;4.60;;;2.80;;
75550;SDS011;65071;53.082;18.218;2022-12-29T03:30:47;5.20;;;2.80;;
75550;SDS011;65071;53.082;18.218;2022-12-29T03:33:15;4.20;;;2.80;;
75550;SDS011;65071;53.082;18.218;2022-12-29T03:35:45;8.10;;;3.30;;
75550;SDS011;65071;53.082;18.218;2022-12-29T03:41:03;5.30;;;3.10;;
75550;SDS011;65071;53.082;18.218;2022-12-29T03:43:34;5.30;;;2.40;;
75550;SDS011;65071;53.082;18.218;2022-12-29T03:46:01;3.80;;;2.00;;
75550;SDS011;65071;53.082;18.218;2022-12-29T03:48:28;5.30;;;2.40;;
75550;SDS011;65071;53.082;18.218;2022-12-29T03:50:55;7.70;;;3.20;;
75550;SDS011;65071;53.082;18.218;2022-12-29T03:53:22;4.10;;;2.40;;
75550;SDS011;65071;53.082;18.218;2022-12-29T03:55:49;6.00;;;3.40;;
75550;SDS011;65071;53.082;18.218;2022-12-29T03:58:16;4.50;;;2.40;;
75550;SDS011;65071;53.082;18.218;2022-12-29T04:01:01;4.40;;;2.70;;
75550;SDS011;65071;53.082;18.218;2022-12-29T04:03:28;3.30;;;2.10;;
75550;SDS011;65071;53.082;18.218;2022-12-29T04:05:56;4.60;;;2.40;;
75550;SDS011;65071;53.082;18.218;2022-12-29T04:08:23;4.70;;;2.60;;
75550;SDS011;65071;53.082;18.218;2022-12-29T04:10:49;3.40;;;2.20;;
75550;SDS011;65071;53.082;18.218;2022-12-29T04:13:18;5.70;;;2.60;;
75550;SDS011;65071;53.082;18.218;2022-12-29T04:15:44;4.90;;;2.50;;
75550;SDS011;65071;53.082;18.218;2022-12-29T04:18:12;3.90;;;1.90;;
75550;SDS011;65071;53.082;18.218;2022-12-29T04:20:39;6.10;;;2.10;;
75550;SDS011;65071;53.082;18.218;2022-12-29T04:23:24;5.60;;;2.80;;
75550;SDS011;65071;53.082;18.218;2022-12-29T04:25:50;4.70;;;2.50;;
75550;SDS011;65071;53.082;18.218;2022-12-29T04:28:17;5.80;;;3.00;;
75550;SDS011;65071;53.082;18.218;2022-12-29T04:30:49;3.20;;;2.10;;
75550;SDS011;65071;53.082;18.218;2022-12-29T04:33:22;4.20;;;2.70;;
75550;SDS011;65071;53.082;18.218;2022-12-29T04:35:48;4.60;;;2.60;;
75550;SDS011;65071;53.082;18.218;2022-12-29T04:38:15;5.20;;;3.20;;
75550;SDS011;65071;53.082;18.218;2022-12-29T04:40:42;4.70;;;2.10;;
75550;SDS011;65071;53.082;18.218;2022-12-29T04:43:10;3.70;;;2.20;;
75550;SDS011;65071;53.082;18.218;2022-12-29T04:45:56;4.30;;;2.70;;
75550;SDS011;65071;53.082;18.218;2022-12-29T04:48:30;4.50;;;2.30;;
75550;SDS011;65071;53.082;18.218;2022-12-29T04:51:11;4.10;;;2.30;;
75550;SDS011;65071;53.082;18.218;2022-12-29T04:53:39;4.70;;;2.50;;
75550;SDS011;65071;53.082;18.218;2022-12-29T04:56:06;4.70;;;2.60;;
75550;SDS011;65071;53.082;18.218;2022-12-29T04:58:33;4.30;;;2.00;;
75550;SDS011;65071;53.082;18.218;2022-12-29T05:00:59;3.30;;;2.00;;
75550;SDS011;65071;53.082;18.218;2022-12-29T05:03:29;4.30;;;2.30;;
75550;SDS011;65071;53.082;18.218;2022-12-29T05:05:56;4.20;;;2.20;;
75550;SDS011;65071;53.082;18.218;2022-12-29T05:08:24;5.00;;;2.40;;
75550;SDS011;65071;53.082;18.218;2022-12-29T05:10:52;5.50;;;2.70;;
75550;SDS011;65071;53.082;18.218;2022-12-29T05:13:18;3.50;;;2.00;;
75550;SDS011;65071;53.082;18.218;2022-12-29T05:15:50;4.10;;;2.10;;
75550;SDS011;65071;53.082;18.218;2022-12-29T05:18:18;4.00;;;2.00;;
75550;SDS011;65071;53.082;18.218;2022-12-29T05:20:45;4.00;;;2.10;;
75550;SDS011;65071;53.082;18.218;2022-12-29T05:23:13;3.80;;;2.10;;
75550;SDS011;65071;53.082;18.218;2022-12-29T05:25:40;5.30;;;2.10;;
75550;SDS011;65071;53.082;18.218;2022-12-29T05:28:27;3.90;;;2.40;;
75550;SDS011;65071;53.082;18.218;2022-12-29T05:30:59;3.00;;;1.80;;
75550;SDS011;65071;53.082;18.218;2022-12-29T05:33:25;3.70;;;2.00;;
75550;SDS011;65071;53.082;18.218;2022-12-29T05:35:52;3.80;;;2.00;;
75550;SDS011;65071;53.082;18.218;2022-12-29T05:38:19;4.20;;;2.00;;
75550;SDS011;65071;53.082;18.218;2022-12-29T05:40:46;3.30;;;2.00;;
75550;SDS011;65071;53.082;18.218;2022-12-29T05:43:31;5.00;;;2.50;;
75550;SDS011;65071;53.082;18.218;2022-12-29T05:46:16;2.80;;;1.70;;
75550;SDS011;65071;53.082;18.218;2022-12-29T05:49:12;3.90;;;1.70;;
75550;SDS011;65071;53.082;18.218;2022-12-29T05:51:57;2.70;;;2.00;;
75550;SDS011;65071;53.082;18.218;2022-12-29T05:54:24;3.70;;;2.10;;
75550;SDS011;65071;53.082;18.218;2022-12-29T05:56:51;3.60;;;2.30;;
75550;SDS011;65071;53.082;18.218;2022-12-29T05:59:18;5.10;;;2.30;;
75550;SDS011;65071;53.082;18.218;2022-12-29T06:01:45;2.50;;;1.70;;
75550;SDS011;65071;53.082;18.218;2022-12-29T06:04:12;5.20;;;2.20;;
75550;SDS011;65071;53.082;18.218;2022-12-29T06:06:38;4.50;;;2.10;;
75550;SDS011;65071;53.082;18.218;2022-12-29T06:09:06;3.90;;;1.90;;
75550;SDS011;65071;53.082;18.218;2022-12-29T06:11:32;4.90;;;2.40;;
75550;SDS011;65071;53.082;18.218;2022-12-29T06:13:59;3.10;;;1.60;;
75550;SDS011;65071;53.082;18.218;2022-12-29T06:16:26;2.70;;;1.80;;
75550;SDS011;65071;53.082;18.218;2022-12-29T06:18:57;4.50;;;2.00;;
75550;SDS011;65071;53.082;18.218;2022-12-29T06:21:23;4.00;;;2.10;;
75550;SDS011;65071;53.082;18.218;2022-12-29T06:23:50;2.90;;;1.70;;
75550;SDS011;65071;53.082;18.218;2022-12-29T06:26:16;2.90;;;1.40;;
75550;SDS011;65071;53.082;18.218;2022-12-29T06:28:43;3.60;;;2.00;;
75550;SDS011;65071;53.082;18.218;2022-12-29T06:31:10;2.20;;;1.40;;
75550;SDS011;65071;53.082;18.218;2022-12-29T06:33:37;3.80;;;1.60;;
75550;SDS011;65071;53.082;18.218;2022-12-29T06:36:04;4.60;;;1.90;;
75550;SDS011;65071;53.082;18.218;2022-12-29T06:38:31;3.60;;;1.70;;
75550;SDS011;65071;53.082;18.218;2022-12-29T06:40:59;3.00;;;1.80;;
75550;SDS011;65071;53.082;18.218;2022-12-29T06:43:45;2.70;;;1.60;;
75550;SDS011;65071;53.082;18.218;2022-12-29T06:46:20;5.30;;;1.90;;
75550;SDS011;65071;53.082;18.218;2022-12-29T06:48:47;3.00;;;1.40;;
75550;SDS011;65071;53.082;18.218;2022-12-29T06:51:14;3.40;;;1.70;;
75550;SDS011;65071;53.082;18.218;2022-12-29T06:53:40;2.90;;;1.80;;
75550;SDS011;65071;53.082;18.218;2022-12-29T06:56:07;2.30;;;1.70;;
75550;SDS011;65071;53.082;18.218;2022-12-29T06:58:34;4.90;;;2.10;;
75550;SDS011;65071;53.082;18.218;2022-12-29T07:01:00;2.60;;;1.50;;
75550;SDS011;65071;53.082;18.218;2022-12-29T07:03:27;2.80;;;1.50;;
75550;SDS011;65071;53.082;18.218;2022-12-29T07:05:53;5.20;;;1.70;;
75550;SDS011;65071;53.082;18.218;2022-12-29T07:08:20;3.10;;;1.70;;
75550;SDS011;65071;53.082;18.218;2022-12-29T07:10:47;2.30;;;1.40;;
75550;SDS011;65071;53.082;18.218;2022-12-29T07:13:13;3.40;;;1.90;;
75550;SDS011;65071;53.082;18.218;2022-12-29T07:15:40;4.10;;;1.50;;
75550;SDS011;65071;53.082;18.218;2022-12-29T07:18:07;2.70;;;1.40;;
75550;SDS011;65071;53.082;18.218;2022-12-29T07:20:33;2.50;;;1.40;;
75550;SDS011;65071;53.082;18.218;2022-12-29T07:23:00;2.20;;;1.30;;
75550;SDS011;65071;53.082;18.218;2022-12-29T07:25:26;4.90;;;2.10;;
75550;SDS011;65071;53.082;18.218;2022-12-29T07:27:54;3.90;;;1.80;;
75550;SDS011;65071;53.082;18.218;2022-12-29T07:30:20;3.30;;;1.70;;
75550;SDS011;65071;53.082;18.218;2022-12-29T07:32:47;3.40;;;1.70;;
75550;SDS011;65071;53.082;18.218;2022-12-29T07:35:13;2.10;;;1.60;;
75550;SDS011;65071;53.082;18.218;2022-12-29T07:37:40;4.10;;;2.00;;
75550;SDS011;65071;53.082;18.218;2022-12-29T07:40:07;2.90;;;1.80;;
75550;SDS011;65071;53.082;18.218;2022-12-29T07:42:35;4.60;;;2.40;;
75550;SDS011;65071;53.082;18.218;2022-12-29T07:45:01;4.50;;;2.00;;
75550;SDS011;65071;53.082;18.218;2022-12-29T07:47:49;2.60;;;1.40;;
75550;SDS011;65071;53.082;18.218;2022-12-29T07:52:42;2.10;;;1.40;;
75550;SDS011;65071;53.082;18.218;2022-12-29T07:55:09;3.70;;;1.90;;
75550;SDS011;65071;53.082;18.218;2022-12-29T07:57:36;2.60;;;1.70;;
75550;SDS011;65071;53.082;18.218;2022-12-29T08:00:03;2.70;;;1.40;;
75550;SDS011;65071;53.082;18.218;2022-12-29T08:02:38;3.20;;;1.80;;
75550;SDS011;65071;53.082;18.218;2022-12-29T08:05:05;2.30;;;1.50;;
75550;SDS011;65071;53.082;18.218;2022-12-29T08:07:32;5.50;;;2.40;;
75550;SDS011;65071;53.082;18.218;2022-12-29T08:09:58;3.10;;;1.90;;
75550;SDS011;65071;53.082;18.218;2022-12-29T08:12:25;2.90;;;1.70;;
75550;SDS011;65071;53.082;18.218;2022-12-29T08:14:51;3.30;;;1.60;;
75550;SDS011;65071;53.082;18.218;2022-12-29T08:17:18;3.00;;;1.80;;
75550;SDS011;65071;53.082;18.218;2022-12-29T08:19:45;2.60;;;1.60;;
75550;SDS011;65071;53.082;18.218;2022-12-29T08:22:12;2.70;;;1.60;;
75550;SDS011;65071;53.082;18.218;2022-12-29T08:24:40;3.30;;;1.70;;
75550;SDS011;65071;53.082;18.218;2022-12-29T08:27:06;4.00;;;2.00;;
75550;SDS011;65071;53.082;18.218;2022-12-29T08:29:33;3.50;;;2.10;;
75550;SDS011;65071;53.082;18.218;2022-12-29T08:32:00;3.90;;;2.00;;
75550;SDS011;65071;53.082;18.218;2022-12-29T08:34:26;3.30;;;1.70;;
75550;SDS011;65071;53.082;18.218;2022-12-29T08:36:53;4.00;;;1.70;;
75550;SDS011;65071;53.082;18.218;2022-12-29T08:39:19;3.60;;;1.70;;
75550;SDS011;65071;53.082;18.218;2022-12-29T08:41:46;7.60;;;2.50;;
75550;SDS011;65071;53.082;18.218;2022-12-29T08:44:12;4.00;;;2.30;;
75550;SDS011;65071;53.082;18.218;2022-12-29T08:46:39;5.50;;;2.10;;
75550;SDS011;65071;53.082;18.218;2022-12-29T08:49:06;3.50;;;1.60;;
75550;SDS011;65071;53.082;18.218;2022-12-29T08:51:32;3.10;;;1.70;;
75550;SDS011;65071;53.082;18.218;2022-12-29T08:53:59;3.00;;;1.70;;
75550;SDS011;65071;53.082;18.218;2022-12-29T08:56:26;2.40;;;1.70;;
75550;SDS011;65071;53.082;18.218;2022-12-29T08:58:53;2.20;;;1.40;;
75550;SDS011;65071;53.082;18.218;2022-12-29T09:01:21;2.10;;;1.40;;
75550;SDS011;65071;53.082;18.218;2022-12-29T09:03:48;4.10;;;1.90;;
75550;SDS011;65071;53.082;18.218;2022-12-29T09:06:16;5.40;;;2.10;;
75550;SDS011;65071;53.082;18.218;2022-12-29T09:08:43;4.20;;;2.50;;
75550;SDS011;65071;53.082;18.218;2022-12-29T09:11:12;3.20;;;2.00;;
75550;SDS011;65071;53.082;18.218;2022-12-29T09:13:44;7.20;;;2.50;;
75550;SDS011;65071;53.082;18.218;2022-12-29T09:16:11;3.90;;;1.60;;
75550;SDS011;65071;53.082;18.218;2022-12-29T09:18:38;3.50;;;1.90;;
75550;SDS011;65071;53.082;18.218;2022-12-29T09:21:05;3.30;;;1.70;;
75550;SDS011;65071;53.082;18.218;2022-12-29T09:23:33;3.90;;;2.10;;
75550;SDS011;65071;53.082;18.218;2022-12-29T09:26:00;5.20;;;2.50;;
75550;SDS011;65071;53.082;18.218;2022-12-29T09:28:27;5.40;;;2.10;;
75550;SDS011;65071;53.082;18.218;2022-12-29T09:30:55;2.70;;;1.70;;
75550;SDS011;65071;53.082;18.218;2022-12-29T09:33:23;6.40;;;2.10;;
75550;SDS011;65071;53.082;18.218;2022-12-29T09:35:53;2.90;;;1.90;;
75550;SDS011;65071;53.082;18.218;2022-12-29T09:38:22;4.70;;;2.20;;
75550;SDS011;65071;53.082;18.218;2022-12-29T09:40:51;3.80;;;1.80;;
75550;SDS011;65071;53.082;18.218;2022-12-29T09:46:13;5.40;;;2.30;;
75550;SDS011;65071;53.082;18.218;2022-12-29T09:48:53;2.50;;;1.70;;
75550;SDS011;65071;53.082;18.218;2022-12-29T09:51:30;3.60;;;2.10;;
75550;SDS011;65071;53.082;18.218;2022-12-29T09:54:02;4.10;;;1.90;;
75550;SDS011;65071;53.082;18.218;2022-12-29T09:56:41;3.90;;;2.00;;
75550;SDS011;65071;53.082;18.218;2022-12-29T09:59:16;2.70;;;1.50;;
75550;SDS011;65071;53.082;18.218;2022-12-29T10:04:26;4.60;;;1.90;;
75550;SDS011;65071;53.082;18.218;2022-12-29T10:06:56;5.80;;;2.60;;
75550;SDS011;65071;53.082;18.218;2022-12-29T10:09:34;2.80;;;1.80;;
75550;SDS011;65071;53.082;18.218;2022-12-29T10:12:27;5.00;;;2.30;;
75550;SDS011;65071;53.082;18.218;2022-12-29T10:20:58;4.80;;;2.20;;
75550;SDS011;65071;53.082;18.218;2022-12-29T10:26:18;3.30;;;1.60;;
75550;SDS011;65071;53.082;18.218;2022-12-29T10:31:18;5.20;;;2.00;;
75550;SDS011;65071;53.082;18.218;2022-12-29T10:33:53;4.70;;;2.00;;
75550;SDS011;65071;53.082;18.218;2022-12-29T10:39:22;3.10;;;1.90;;
75550;SDS011;65071;53.082;18.218;2022-12-29T10:41:54;4.00;;;1.80;;
75550;SDS011;65071;53.082;18.218;2022-12-29T10:44:30;2.40;;;1.60;;
75550;SDS011;65071;53.082;18.218;2022-12-29T10:47:10;4.30;;;1.90;;
75550;SDS011;65071;53.082;18.218;2022-12-29T10:49:42;4.80;;;1.80;;
75550;SDS011;65071;53.082;18.218;2022-12-29T10:52:14;3.80;;;2.00;;
75550;SDS011;65071;53.082;18.218;2022-12-29T10:54:49;4.10;;;1.90;;
75550;SDS011;65071;53.082;18.218;2022-12-29T10:57:38;3.80;;;2.00;;
75550;SDS011;65071;53.082;18.218;2022-12-29T11:00:11;3.60;;;1.70;;
75550;SDS011;65071;53.082;18.218;2022-12-29T11:02:43;3.50;;;2.30;;
75550;SDS011;65071;53.082;18.218;2022-12-29T11:05:46;4.00;;;1.90;;
75550;SDS011;65071;53.082;18.218;2022-12-29T11:08:24;3.80;;;1.90;;
75550;SDS011;65071;53.082;18.218;2022-12-29T11:11:00;3.90;;;1.80;;
75550;SDS011;65071;53.082;18.218;2022-12-29T11:13:29;6.60;;;2.50;;
75550;SDS011;65071;53.082;18.218;2022-12-29T11:15:58;3.80;;;1.90;;
75550;SDS011;65071;53.082;18.218;2022-12-29T11:21:07;5.70;;;2.90;;
75550;SDS011;65071;53.082;18.218;2022-12-29T11:23:55;4.60;;;1.90;;
75550;SDS011;65071;53.082;18.218;2022-12-29T11:26:24;5.20;;;2.50;;
75550;SDS011;65071;53.082;18.218;2022-12-29T11:31:43;5.00;;;2.10;;
75550;SDS011;65071;53.082;18.218;2022-12-29T11:34:17;6.70;;;2.10;;
75550;SDS011;65071;53.082;18.218;2022-12-29T11:36:47;3.70;;;1.90;;
75550;SDS011;65071;53.082;18.218;2022-12-29T11:39:29;5.60;;;2.50;;
75550;SDS011;65071;53.082;18.218;2022-12-29T11:42:00;4.70;;;2.10;;
75550;SDS011;65071;53.082;18.218;2022-12-29T11:44:30;3.30;;;2.10;;
75550;SDS011;65071;53.082;18.218;2022-12-29T11:47:08;3.30;;;2.10;;
75550;SDS011;65071;53.082;18.218;2022-12-29T11:49:38;4.10;;;1.90;;
75550;SDS011;65071;53.082;18.218;2022-12-29T11:52:05;4.50;;;1.90;;
75550;SDS011;65071;53.082;18.218;2022-12-29T11:54:33;4.60;;;2.40;;
75550;SDS011;65071;53.082;18.218;2022-12-29T11:57:09;3.90;;;2.00;;
75550;SDS011;65071;53.082;18.218;2022-12-29T11:59:40;4.40;;;2.20;;
75550;SDS011;65071;53.082;18.218;2022-12-29T12:02:21;4.50;;;2.50;;
75550;SDS011;65071;53.082;18.218;2022-12-29T12:04:59;5.10;;;2.90;;
75550;SDS011;65071;53.082;18.218;2022-12-29T12:07:40;3.30;;;2.10;;
75550;SDS011;65071;53.082;18.218;2022-12-29T12:10:15;4.50;;;2.30;;
75550;SDS011;65071;53.082;18.218;2022-12-29T12:13:17;3.60;;;2.30;;
75550;SDS011;65071;53.082;18.218;2022-12-29T12:15:57;3.50;;;2.20;;
75550;SDS011;65071;53.082;18.218;2022-12-29T12:18:38;3.10;;;1.90;;
75550;SDS011;65071;53.082;18.218;2022-12-29T12:23:51;4.10;;;1.80;;
75550;SDS011;65071;53.082;18.218;2022-12-29T12:26:20;4.30;;;2.00;;
75550;SDS011;65071;53.082;18.218;2022-12-29T12:29:10;5.40;;;2.60;;
75550;SDS011;65071;53.082;18.218;2022-12-29T12:34:21;4.60;;;2.70;;
75550;SDS011;65071;53.082;18.218;2022-12-29T12:37:40;3.20;;;1.90;;
75550;SDS011;65071;53.082;18.218;2022-12-29T13:02:00;3.60;;;1.90;;
75550;SDS011;65071;53.082;18.218;2022-12-29T13:07:30;4.30;;;2.10;;
75550;SDS011;65071;53.082;18.218;2022-12-29T13:10:22;2.50;;;2.00;;
75550;SDS011;65071;53.082;18.218;2022-12-29T13:21:25;3.90;;;1.80;;
75550;SDS011;65071;53.082;18.218;2022-12-29T13:23:56;3.60;;;1.70;;
75550;SDS011;65071;53.082;18.218;2022-12-29T13:26:48;2.70;;;1.80;;
75550;SDS011;65071;53.082;18.218;2022-12-29T13:35:21;3.70;;;1.70;;
75550;SDS011;65071;53.082;18.218;2022-12-29T13:38:21;4.30;;;1.90;;
75550;SDS011;65071;53.082;18.218;2022-12-29T13:40:55;4.00;;;2.00;;
75550;SDS011;65071;53.082;18.218;2022-12-29T13:43:27;2.00;;;1.50;;
75550;SDS011;65071;53.082;18.218;2022-12-29T13:46:15;3.50;;;1.70;;
75550;SDS011;65071;53.082;18.218;2022-12-29T13:49:02;4.00;;;2.00;;
75550;SDS011;65071;53.082;18.218;2022-12-29T13:51:33;3.10;;;1.70;;
75550;SDS011;65071;53.082;18.218;2022-12-29T14:02:24;4.20;;;2.00;;
75550;SDS011;65071;53.082;18.218;2022-12-29T14:05:04;2.90;;;1.70;;
75550;SDS011;65071;53.082;18.218;2022-12-29T14:08:01;2.60;;;1.50;;
75550;SDS011;65071;53.082;18.218;2022-12-29T14:10:37;3.70;;;1.80;;
75550;SDS011;65071;53.082;18.218;2022-12-29T14:13:14;3.30;;;1.60;;
75550;SDS011;65071;53.082;18.218;2022-12-29T14:15:43;3.50;;;1.70;;
75550;SDS011;65071;53.082;18.218;2022-12-29T14:18:19;2.30;;;1.40;;
75550;SDS011;65071;53.082;18.218;2022-12-29T14:23:26;2.60;;;1.40;;
75550;SDS011;65071;53.082;18.218;2022-12-29T14:28:32;2.70;;;1.40;;
75550;SDS011;65071;53.082;18.218;2022-12-29T14:40:02;2.80;;;1.60;;
75550;SDS011;65071;53.082;18.218;2022-12-29T14:44:50;2.70;;;1.20;;
75550;SDS011;65071;53.082;18.218;2022-12-29T14:47:22;2.20;;;1.40;;
75550;SDS011;65071;53.082;18.218;2022-12-29T14:50:24;2.30;;;1.30;;
75550;SDS011;65071;53.082;18.218;2022-12-29T14:52:55;2.80;;;1.40;;
75550;SDS011;65071;53.082;18.218;2022-12-29T14:58:14;2.80;;;1.50;;
75550;SDS011;65071;53.082;18.218;2022-12-29T15:00:45;3.20;;;1.60;;
75550;SDS011;65071;53.082;18.218;2022-12-29T15:05:47;3.60;;;1.40;;
75550;SDS011;65071;53.082;18.218;2022-12-29T15:08:17;3.20;;;1.20;;
75550;SDS011;65071;53.082;18.218;2022-12-29T15:11:06;2.70;;;1.30;;
75550;SDS011;65071;53.082;18.218;2022-12-29T15:13:44;4.60;;;1.80;;
75550;SDS011;65071;53.082;18.218;2022-12-29T15:16:21;5.30;;;1.70;;
75550;SDS011;65071;53.082;18.218;2022-12-29T15:18:50;3.70;;;1.50;;
75550;SDS011;65071;53.082;18.218;2022-12-29T15:21:24;4.20;;;1.60;;
75550;SDS011;65071;53.082;18.218;2022-12-29T15:23:52;4.70;;;2.30;;
75550;SDS011;65071;53.082;18.218;2022-12-29T15:26:20;7.50;;;2.80;;
75550;SDS011;65071;53.082;18.218;2022-12-29T15:28:52;5.60;;;2.10;;
75550;SDS011;65071;53.082;18.218;2022-12-29T15:31:21;4.80;;;2.00;;
75550;SDS011;65071;53.082;18.218;2022-12-29T15:33:53;3.50;;;1.60;;
75550;SDS011;65071;53.082;18.218;2022-12-29T15:36:25;3.90;;;2.00;;
75550;SDS011;65071;53.082;18.218;2022-12-29T15:38:54;3.90;;;1.70;;
75550;SDS011;65071;53.082;18.218;2022-12-29T15:41:25;3.50;;;2.00;;
75550;SDS011;65071;53.082;18.218;2022-12-29T15:44:40;4.90;;;2.10;;
75550;SDS011;65071;53.082;18.218;2022-12-29T15:47:14;4.70;;;2.60;;
75550;SDS011;65071;53.082;18.218;2022-12-29T15:49:53;3.60;;;2.60;;
75550;SDS011;65071;53.082;18.218;2022-12-29T15:52:32;4.40;;;2.50;;
75550;SDS011;65071;53.082;18.218;2022-12-29T15:55:00;4.40;;;2.40;;
75550;SDS011;65071;53.082;18.218;2022-12-29T15:57:29;4.00;;;2.00;;
75550;SDS011;65071;53.082;18.218;2022-12-29T16:00:02;6.80;;;3.70;;
75550;SDS011;65071;53.082;18.218;2022-12-29T16:02:38;5.50;;;2.60;;
75550;SDS011;65071;53.082;18.218;2022-12-29T16:05:08;5.60;;;2.50;;
75550;SDS011;65071;53.082;18.218;2022-12-29T16:07:35;5.80;;;3.20;;
75550;SDS011;65071;53.082;18.218;2022-12-29T16:10:02;6.20;;;2.90;;
75550;SDS011;65071;53.082;18.218;2022-12-29T16:12:30;10.30;;;3.90;;
75550;SDS011;65071;53.082;18.218;2022-12-29T16:15:00;8.60;;;5.00;;
75550;SDS011;65071;53.082;18.218;2022-12-29T16:17:30;9.30;;;3.30;;
75550;SDS011;65071;53.082;18.218;2022-12-29T16:20:03;8.50;;;4.10;;
75550;SDS011;65071;53.082;18.218;2022-12-29T16:22:45;6.50;;;3.40;;
75550;SDS011;65071;53.082;18.218;2022-12-29T16:27:51;9.20;;;3.80;;
75550;SDS011;65071;53.082;18.218;2022-12-29T16:30:19;10.60;;;4.60;;
75550;SDS011;65071;53.082;18.218;2022-12-29T16:32:52;6.90;;;3.20;;
75550;SDS011;65071;53.082;18.218;2022-12-29T16:35:22;9.20;;;3.90;;
75550;SDS011;65071;53.082;18.218;2022-12-29T16:38:06;5.80;;;3.10;;
75550;SDS011;65071;53.082;18.218;2022-12-29T16:40:52;7.50;;;2.50;;
75550;SDS011;65071;53.082;18.218;2022-12-29T16:43:24;7.60;;;4.10;;
75550;SDS011;65071;53.082;18.218;2022-12-29T16:48:52;5.20;;;3.00;;
75550;SDS011;65071;53.082;18.218;2022-12-29T16:51:16;10.00;;;3.50;;
75550;SDS011;65071;53.082;18.218;2022-12-29T16:53:50;8.50;;;3.70;;
75550;SDS011;65071;53.082;18.218;2022-12-29T16:56:25;8.40;;;3.60;;
75550;SDS011;65071;53.082;18.218;2022-12-29T17:01:39;10.00;;;3.30;;
75550;SDS011;65071;53.082;18.218;2022-12-29T17:04:07;6.60;;;3.00;;
75550;SDS011;65071;53.082;18.218;2022-12-29T17:06:36;5.80;;;3.30;;
75550;SDS011;65071;53.082;18.218;2022-12-29T17:09:15;7.40;;;3.50;;
75550;SDS011;65071;53.082;18.218;2022-12-29T17:11:43;6.70;;;3.10;;
75550;SDS011;65071;53.082;18.218;2022-12-29T17:14:33;7.20;;;3.30;;
75550;SDS011;65071;53.082;18.218;2022-12-29T17:17:03;7.40;;;3.30;;
75550;SDS011;65071;53.082;18.218;2022-12-29T17:19:36;6.60;;;3.30;;
75550;SDS011;65071;53.082;18.218;2022-12-29T17:22:15;5.10;;;2.70;;
75550;SDS011;65071;53.082;18.218;2022-12-29T17:24:44;9.00;;;4.10;;
75550;SDS011;65071;53.082;18.218;2022-12-29T17:30:13;7.70;;;3.80;;
75550;SDS011;65071;53.082;18.218;2022-12-29T17:32:43;7.60;;;3.60;;
75550;SDS011;65071;53.082;18.218;2022-12-29T17:35:15;6.90;;;3.60;;
75550;SDS011;65071;53.082;18.218;2022-12-29T17:37:43;9.20;;;3.40;;